Time;durP1;ratioP1;P1;durP2;ratioP2;P2;SDS_P1;SDS_P2;PMS_P1;PMS_P2;Temp;Humidity;BMP_temperature;BMP_pressure;BME280_temperature;BME280_humidity;BME280_pressure;Samples;Min_cycle;Max_cycle;Signal;HPM_P1;HPM_P2
2021/01/03 00:02:01;;;;;;;36.23;23.70;;;;;;;-0.47;80.93;101406.16;1728600;81;21830;-63
2021/01/03 00:04:29;;;;;;;35.70;23.45;;;;;;;-0.48;80.96;101409.59;1726094;83;21085;-62
2021/01/03 00:06:57;;;;;;;36.10;24.23;;;;;;;-0.49;80.97;101409.19;1740495;82;21130;-63
2021/01/03 00:09:25;;;;;;;33.60;23.10;;;;;;;-0.49;80.99;101407.89;1769894;80;21147;-62
2021/01/03 00:11:54;;;;;;;37.28;25.15;;;;;;;-0.49;80.97;101407.89;1722100;83;21168;-63
2021/01/03 00:14:22;;;;;;;37.58;24.15;;;;;;;-0.50;80.97;101414.82;1752772;81;21962;-63
2021/01/03 00:16:54;;;;;;;33.83;23.47;;;;;;;-0.52;80.92;101399.73;1729188;83;21086;-63
2021/01/03 00:19:22;;;;;;;32.63;22.95;;;;;;;-0.52;80.88;101409.25;1730357;83;21146;-63
2021/01/03 00:21:51;;;;;;;35.38;23.67;;;;;;;-0.52;80.90;101412.70;1751798;81;21077;-65
2021/01/03 00:24:20;;;;;;;35.80;24.55;;;;;;;-0.51;80.90;101408.37;1761556;81;21074;-65
2021/01/03 00:26:47;;;;;;;35.40;23.25;;;;;;;-0.52;80.88;101407.52;1758943;81;22978;-65
2021/01/03 00:29:18;;;;;;;32.55;22.45;;;;;;;-0.51;80.88;101412.26;1755227;81;21149;-66
2021/01/03 00:31:48;;;;;;;33.85;22.27;;;;;;;-0.51;80.88;101409.66;1725306;83;21102;-63
2021/01/03 00:34:17;;;;;;;32.15;22.00;;;;;;;-0.51;80.88;101410.96;1745209;81;21149;-65
2021/01/03 00:36:58;;;;;;;34.20;22.55;;;;;;;-0.51;80.88;101409.66;1637592;87;21104;-65
2021/01/03 00:39:25;;;;;;;29.55;21.60;;;;;;;-0.51;80.94;101407.06;1637269;87;24253;-65
2021/01/03 00:41:53;;;;;;;31.77;20.60;;;;;;;-0.51;80.89;101406.63;1637186;87;21187;-64
2021/01/03 00:44:23;;;;;;;25.77;19.05;;;;;;;-0.54;80.85;101407.13;1635570;86;21413;-64
2021/01/03 00:46:51;;;;;;;31.87;20.20;;;;;;;-0.57;80.82;101406.75;1637257;87;21163;-64
2021/01/03 00:49:19;;;;;;;31.57;20.00;;;;;;;-0.59;80.80;101398.97;1637158;87;21096;-64
2021/01/03 00:51:47;;;;;;;30.65;20.35;;;;;;;-0.60;80.80;101402.45;1637191;87;21933;-64
2021/01/03 00:54:16;;;;;;;28.45;19.07;;;;;;;-0.62;80.77;101400.33;1637236;87;21123;-65
2021/01/03 00:56:44;;;;;;;29.20;20.15;;;;;;;-0.65;80.68;101406.02;1637196;87;21103;-64
2021/01/03 00:59:12;;;;;;;31.68;21.00;;;;;;;-0.72;80.57;101405.25;1637253;87;21171;-64
2021/01/03 01:01:40;;;;;;;27.58;18.82;;;;;;;-0.77;80.51;101407.08;1637278;87;21231;-64
2021/01/03 01:04:08;;;;;;;28.55;20.02;;;;;;;-0.80;80.46;101400.63;1637319;87;22106;-64
2021/01/03 01:06:36;;;;;;;28.45;19.48;;;;;;;-0.85;80.42;101394.67;1637250;87;21115;-63
2021/01/03 01:09:05;;;;;;;30.72;19.95;;;;;;;-0.90;80.38;101393.44;1637410;87;21111;-64
2021/01/03 01:11:33;;;;;;;30.82;20.77;;;;;;;-0.94;80.37;101383.15;1639218;87;21617;-65
2021/01/03 01:14:01;;;;;;;30.92;22.48;;;;;;;-0.98;80.40;101388.80;1639301;87;21135;-64
2021/01/03 01:16:29;;;;;;;30.12;22.22;;;;;;;-0.98;80.51;101387.51;1639307;86;22104;-64
2021/01/03 01:18:57;;;;;;;26.55;17.73;;;;;;;-0.94;80.65;101390.48;1639179;87;21095;-64
2021/01/03 01:21:25;;;;;;;27.42;18.70;;;;;;;-0.89;80.90;101388.66;1639188;87;21083;-64
2021/01/03 01:23:53;;;;;;;30.62;21.70;;;;;;;-0.81;81.22;101385.95;1637305;87;21226;-65
2021/01/03 01:26:21;;;;;;;33.02;23.87;;;;;;;-0.69;81.51;101386.17;1637163;87;21166;-63
2021/01/03 01:28:49;;;;;;;32.60;24.15;;;;;;;-0.60;81.76;101386.88;1637325;87;22097;-63
2021/01/03 01:31:18;;;;;;;41.77;27.62;;;;;;;-0.50;81.95;101382.83;1637254;87;21131;-63
2021/01/03 01:33:45;;;;;;;42.08;28.45;;;;;;;-0.43;82.08;101385.73;1637280;86;21088;-63
2021/01/03 01:36:13;;;;;;;44.40;28.17;;;;;;;-0.39;82.19;101381.74;1637102;86;22700;-65
2021/01/03 01:38:42;;;;;;;46.73;29.75;;;;;;;-0.34;82.28;101385.13;1639627;87;21156;-65
2021/01/03 01:41:09;;;;;;;44.38;27.75;;;;;;;-0.28;82.44;101389.37;1639564;87;22129;-65
2021/01/03 01:43:37;;;;;;;39.18;26.20;;;;;;;-0.24;82.50;101382.36;1639443;87;21113;-65
2021/01/03 01:46:04;;;;;;;41.05;26.27;;;;;;;-0.23;82.59;101385.38;1669585;84;21111;-65
2021/01/03 01:48:36;;;;;;;43.58;28.23;;;;;;;-0.23;82.63;101388.82;1669499;86;21187;-65
2021/01/03 01:51:15;;;;;;;30.20;20.37;;;;;;;-0.22;82.68;101398.76;1644792;86;21112;-64
2021/01/03 01:54:07;;;;;;;31.55;22.10;;;;;;;-0.17;82.76;101396.95;1873576;76;29050;-64
2021/01/03 01:56:55;;;;;;;32.10;21.48;;;;;;;-0.18;82.85;101406.92;1841247;77;21108;-63
2021/01/03 01:59:54;;;;;;;26.37;18.00;;;;;;;-0.14;83.01;101414.61;1833982;78;22796;-65
2021/01/03 02:02:46;;;;;;;32.67;19.40;;;;;;;-0.03;83.29;101416.56;1808394;78;21083;-63
2021/01/03 02:05:34;;;;;;;25.60;17.60;;;;;;;0.13;83.69;101416.28;1843517;76;21118;-65
2021/01/03 02:08:17;;;;;;;29.20;19.67;;;;;;;0.25;83.85;101412.13;1790730;80;21149;-64
2021/01/03 02:10:47;;;;;;;30.52;21.10;;;;;;;0.31;83.99;101414.61;1814201;79;21089;-63
2021/01/03 02:13:31;;;;;;;26.97;18.05;;;;;;;0.32;84.00;101423.27;1814120;79;22068;-63
2021/01/03 02:16:07;;;;;;;25.08;17.27;;;;;;;0.26;83.97;101425.53;1787365;79;21494;-64
2021/01/03 02:18:34;;;;;;;33.95;19.73;;;;;;;0.17;83.89;101425.71;1755928;79;21157;-65
2021/01/03 02:21:26;;;;;;;54.13;20.15;;;;;;;0.08;83.90;101434.53;1766674;81;22463;-65
2021/01/03 02:24:16;;;;;;;42.85;17.98;;;;;;;0.01;83.93;101439.90;1766734;79;21093;-63
2021/01/03 02:26:50;;;;;;;37.78;17.52;;;;;;;-0.05;84.00;101436.96;1779207;79;21567;-63
2021/01/03 02:29:19;;;;;;;19.62;13.13;;;;;;;-0.11;84.14;101435.32;1751884;80;21088;-63
2021/01/03 02:31:52;;;;;;;42.17;15.48;;;;;;;-0.15;84.22;101434.98;1782016;79;21093;-63
2021/01/03 02:34:30;;;;;;;43.08;12.82;;;;;;;-0.18;84.39;101437.64;1780898;79;21057;-64
2021/01/03 02:37:03;;;;;;;18.60;13.03;;;;;;;-0.22;84.49;101437.27;1752371;80;21480;-64
2021/01/03 02:40:01;;;;;;;20.15;13.10;;;;;;;-0.25;84.64;101437.77;1751328;80;22032;-65
2021/01/03 02:42:32;;;;;;;32.80;13.78;;;;;;;-0.29;84.71;101438.24;1750713;82;21115;-63
2021/01/03 02:45:01;;;;;;;24.37;12.30;;;;;;;-0.33;84.86;101434.86;1750293;82;21121;-64
2021/01/03 02:47:32;;;;;;;30.40;13.38;;;;;;;-0.36;84.94;101437.52;1693190;83;21089;-63
2021/01/03 02:50:00;;;;;;;13.70;9.65;;;;;;;-0.40;85.03;101433.25;1723855;82;21510;-65
2021/01/03 02:52:36;;;;;;;43.20;14.18;;;;;;;-0.41;85.08;101436.73;1751329;81;22460;-64
2021/01/03 02:55:06;;;;;;;65.10;16.48;;;;;;;-0.44;85.16;101434.19;1759000;81;21123;-67
2021/01/03 02:57:33;;;;;;;66.55;16.57;;;;;;;-0.45;85.23;101429.89;1760168;80;21104;-65
2021/01/03 03:00:06;;;;;;;21.85;11.88;;;;;;;-0.44;85.29;101434.64;1757918;80;21064;-64
2021/01/03 03:02:34;;;;;;;92.55;15.85;;;;;;;-0.43;85.35;101442.84;1760149;81;21607;-65
2021/01/03 03:05:04;;;;;;;22.65;10.78;;;;;;;-0.44;85.40;101440.69;1758694;80;22076;-64
2021/01/03 03:07:35;;;;;;;18.40;10.05;;;;;;;-0.43;85.45;101438.50;1749780;81;21167;-65
2021/01/03 03:10:06;;;;;;;16.32;11.22;;;;;;;-0.41;85.48;101442.36;1727886;83;21223;-63
2021/01/03 03:12:35;;;;;;;39.75;15.18;;;;;;;-0.42;85.52;101440.20;1703536;83;21139;-64
2021/01/03 03:15:07;;;;;;;25.57;12.25;;;;;;;-0.42;85.57;101443.25;1746278;81;21162;-65
2021/01/03 03:17:35;;;;;;;21.90;12.40;;;;;;;-0.40;85.61;101444.07;1758634;81;22964;-65
2021/01/03 03:20:05;;;;;;;20.35;11.75;;;;;;;-0.40;85.63;101444.07;1755468;81;21108;-64
2021/01/03 03:22:32;;;;;;;13.43;9.50;;;;;;;-0.42;85.68;101441.50;1757359;80;21227;-63
2021/01/03 03:25:00;;;;;;;19.17;12.65;;;;;;;-0.41;85.71;101445.81;1758942;80;21364;-63
2021/01/03 03:27:29;;;;;;;13.30;9.33;;;;;;;-0.42;85.75;101454.92;1757301;81;21084;-65
2021/01/03 03:29:56;;;;;;;14.50;10.43;;;;;;;-0.44;85.79;101442.42;1727904;81;22077;-63
2021/01/03 03:32:24;;;;;;;15.20;10.35;;;;;;;-0.46;85.83;101439.86;1727798;83;21567;-63
2021/01/03 03:34:52;;;;;;;25.68;13.13;;;;;;;-0.47;85.83;101445.94;1727799;81;21175;-64
2021/01/03 03:37:19;;;;;;;14.47;10.05;;;;;;;-0.47;85.88;101441.19;1731167;81;21096;-64
2021/01/03 03:39:47;;;;;;;21.50;11.22;;;;;;;-0.47;85.87;101433.41;1730567;81;21057;-63
2021/01/03 03:42:15;;;;;;;23.12;11.55;;;;;;;-0.47;85.91;101430.80;1734068;82;22943;-63
2021/01/03 03:44:43;;;;;;;9.93;7.20;;;;;;;-0.49;85.91;101429.95;1741982;82;21133;-63
2021/01/03 03:47:11;;;;;;;25.80;10.60;;;;;;;-0.50;85.90;101431.69;1742095;82;21491;-64
2021/01/03 03:49:39;;;;;;;15.15;8.58;;;;;;;-0.51;85.91;101427.83;1741999;81;21060;-64
2021/01/03 03:52:08;;;;;;;9.65;7.30;;;;;;;-0.55;85.91;101428.78;1733344;81;21105;-63
2021/01/03 03:54:36;;;;;;;14.65;8.68;;;;;;;-0.55;85.90;101438.72;1762066;81;22116;-63
2021/01/03 03:57:06;;;;;;;47.48;12.50;;;;;;;-0.57;85.95;101435.30;1762080;80;21587;-63
2021/01/03 03:59:33;;;;;;;35.03;14.70;;;;;;;-0.57;85.95;101438.33;1761994;81;21150;-63
2021/01/03 04:02:02;;;;;;;31.02;10.68;;;;;;;-0.56;85.98;101442.20;1747156;81;21505;-63
2021/01/03 04:04:29;;;;;;;37.50;10.38;;;;;;;-0.54;86.00;101450.80;1762089;80;21053;-63
2021/01/03 04:06:57;;;;;;;28.70;8.73;;;;;;;-0.54;86.01;101456.44;1762021;81;24268;-63
2021/01/03 04:09:25;;;;;;;34.33;10.15;;;;;;;-0.55;85.98;101457.32;1733514;81;21128;-63
2021/01/03 04:11:53;;;;;;;11.43;7.42;;;;;;;-0.59;86.01;101457.79;1731722;82;21207;-64
2021/01/03 04:14:23;;;;;;;43.08;11.20;;;;;;;-0.60;86.00;101461.27;1731680;81;21088;-64
2021/01/03 04:16:56;;;;;;;14.65;9.13;;;;;;;-0.62;86.04;101462.59;1757944;81;21049;-63
2021/01/03 04:19:25;;;;;;;39.33;12.93;;;;;;;-0.60;86.06;101467.76;1751082;81;22078;-63
2021/01/03 04:22:02;;;;;;;21.57;10.23;;;;;;;-0.62;86.07;101460.45;1741961;81;21140;-63
2021/01/03 04:24:30;;;;;;;19.77;10.20;;;;;;;-0.62;86.10;101463.04;1762125;81;21007;-64
2021/01/03 04:27:06;;;;;;;32.35;11.22;;;;;;;-0.63;86.11;101463.92;1761958;80;21089;-64
2021/01/03 04:29:34;;;;;;;23.52;11.20;;;;;;;-0.64;86.12;101460.92;1762151;80;21556;-63
2021/01/03 04:32:08;;;;;;;36.73;16.85;;;;;;;-0.64;86.15;101460.47;1761811;81;22130;-63
2021/01/03 04:34:39;;;;;;;27.73;13.25;;;;;;;-0.63;86.19;101466.08;1761998;81;21105;-64
2021/01/03 04:37:09;;;;;;;19.17;11.20;;;;;;;-0.62;86.19;101463.89;1762054;81;21063;-64
2021/01/03 04:39:37;;;;;;;23.30;13.60;;;;;;;-0.60;86.21;101468.61;1761959;80;21224;-64
2021/01/03 04:42:15;;;;;;;33.58;12.30;;;;;;;-0.59;86.24;101470.32;1762022;81;21118;-64
2021/01/03 04:44:49;;;;;;;62.98;36.38;;;;;;;-0.56;86.24;101475.07;1760966;80;21974;-64
2021/01/03 04:47:39;;;;;;;115.23;61.20;;;;;;;-0.56;86.26;101470.73;1761155;80;21066;-63
2021/01/03 04:50:28;;;;;;;189.82;114.45;;;;;;;-0.54;86.27;101468.97;1745060;81;21061;-64
2021/01/03 04:53:13;;;;;;;147.10;84.80;;;;;;;-0.52;86.28;101465.05;1754230;79;21176;-64
2021/01/03 04:55:52;;;;;;;134.22;61.25;;;;;;;-0.49;86.32;101471.47;1726181;83;21069;-63
2021/01/03 04:58:30;;;;;;;160.20;69.00;;;;;;;-0.47;86.33;101471.03;1745798;80;22787;-65
2021/01/03 05:01:06;;;;;;;89.90;39.18;;;;;;;-0.44;86.33;101466.64;1758710;81;21065;-64
2021/01/03 05:04:07;;;;;;;108.70;31.23;;;;;;;-0.41;86.36;101464.42;1758059;81;21129;-63
2021/01/03 05:06:36;;;;;;;127.90;41.13;;;;;;;-0.39;86.36;101469.14;1758522;80;21156;-65
2021/01/03 05:09:06;;;;;;;112.72;36.75;;;;;;;-0.37;86.37;101467.40;1758669;81;21109;-62
2021/01/03 05:11:59;;;;;;;92.92;31.20;;;;;;;-0.35;86.37;101468.23;1758039;81;21906;-63
2021/01/03 05:14:48;;;;;;;75.22;30.40;;;;;;;-0.33;86.38;101472.50;1728580;83;21062;-64
2021/01/03 05:17:16;;;;;;;52.98;23.75;;;;;;;-0.29;86.40;101475.89;1749220;80;21097;-63
2021/01/03 05:19:44;;;;;;;48.17;24.98;;;;;;;-0.27;86.41;101479.34;1758836;80;21129;-64
2021/01/03 05:22:29;;;;;;;42.45;20.37;;;;;;;-0.25;86.39;101476.71;1758855;80;21466;-64
2021/01/03 05:25:00;;;;;;;42.38;20.55;;;;;;;-0.26;86.39;101481.49;1758637;80;21880;-64
2021/01/03 05:27:29;;;;;;;73.97;27.87;;;;;;;-0.29;86.36;101478.48;1758690;80;21188;-64
2021/01/03 05:30:20;;;;;;;50.65;20.25;;;;;;;-0.32;86.33;101485.03;1758739;80;21350;-64
2021/01/03 05:32:47;;;;;;;66.77;27.75;;;;;;;-0.37;86.32;101485.57;1758738;80;21078;-63
2021/01/03 05:35:27;;;;;;;44.18;20.17;;;;;;;-0.39;86.31;101488.16;1758759;81;21057;-63
2021/01/03 05:37:56;;;;;;;61.00;26.52;;;;;;;-0.40;86.29;101486.89;1758746;81;22060;-63
2021/01/03 05:40:36;;;;;;;74.97;23.20;;;;;;;-0.41;86.29;101491.67;1758622;81;21141;-63
2021/01/03 05:43:23;;;;;;;50.80;18.23;;;;;;;-0.44;86.27;101486.55;1758689;80;21117;-63
2021/01/03 05:46:15;;;;;;;72.75;20.77;;;;;;;-0.47;86.26;101485.31;1758684;81;21078;-62
2021/01/03 05:49:03;;;;;;;61.23;19.77;;;;;;;-0.49;86.25;101488.34;1758779;81;21114;-63
2021/01/03 05:51:46;;;;;;;83.03;22.37;;;;;;;-0.51;86.23;101492.70;1758769;81;22058;-62
2021/01/03 05:54:23;;;;;;;50.45;16.50;;;;;;;-0.52;86.22;101494.89;1758746;81;21145;-64
2021/01/03 05:56:52;;;;;;;53.87;24.87;;;;;;;-0.54;86.21;101496.66;1758777;81;21078;-66
2021/01/03 05:59:28;;;;;;;86.20;26.30;;;;;;;-0.62;86.15;101505.41;1758730;80;21058;-65
2021/01/03 06:02:23;;;;;;;57.83;22.15;;;;;;;-0.71;86.14;101505.55;1758752;80;21132;-65
2021/01/03 06:05:16;;;;;;;58.75;22.50;;;;;;;-0.71;86.16;101518.52;1758581;80;22880;-63
2021/01/03 06:08:11;;;;;;;44.15;18.48;;;;;;;-0.69;86.14;101523.68;1879318;76;29048;-64
2021/01/03 06:10:40;;;;;;;57.53;22.77;;;;;;;-0.75;86.16;101522.05;1788974;79;21588;-63
2021/01/03 06:13:10;;;;;;;42.40;18.80;;;;;;;-0.77;86.14;101529.41;1816428;79;21872;-64
2021/01/03 06:15:49;;;;;;;45.60;22.02;;;;;;;-0.78;86.16;101528.56;1809863;77;21077;-63
2021/01/03 06:18:43;;;;;;;64.20;22.82;;;;;;;-0.81;86.14;101532.50;1840662;77;21118;-63
2021/01/03 06:21:17;;;;;;;52.65;18.42;;;;;;;-0.86;86.15;101520.05;1848875;77;21058;-64
2021/01/03 06:23:56;;;;;;;43.05;16.80;;;;;;;-0.87;86.18;101525.69;1807639;77;21618;-64
2021/01/03 06:26:24;;;;;;;54.03;22.05;;;;;;;-0.88;86.20;101529.56;1831546;77;21941;-63
2021/01/03 06:28:54;;;;;;;44.90;17.52;;;;;;;-0.89;86.21;101531.30;1840202;77;21070;-63
2021/01/03 06:32:00;;;;;;;39.63;19.67;;;;;;;-0.86;86.21;101521.34;1821860;77;21067;-64
2021/01/03 06:34:35;;;;;;;23.70;13.18;;;;;;;-0.84;86.22;101526.07;1821769;77;21050;-63
2021/01/03 06:37:09;;;;;;;27.45;16.35;;;;;;;-0.80;86.26;101526.43;1821956;78;21471;-63
2021/01/03 06:39:49;;;;;;;38.02;19.90;;;;;;;-0.77;86.26;101526.81;1791326;78;23027;-68
2021/01/03 06:42:50;;;;;;;45.17;23.38;;;;;;;-0.76;86.28;101528.56;1699012;82;21443;-64
2021/01/03 06:45:49;;;;;;;28.92;18.17;;;;;;;-0.73;86.28;101524.61;1784161;78;21110;-63
2021/01/03 06:48:28;;;;;;;22.02;13.40;;;;;;;-0.69;86.31;101521.08;1799463;78;21132;-63
2021/01/03 06:51:11;;;;;;;36.28;20.10;;;;;;;-0.66;86.32;101527.11;1793449;78;21166;-63
2021/01/03 06:54:03;;;;;;;35.85;19.32;;;;;;;-0.62;86.32;101526.17;1799723;78;22055;-63
2021/01/03 06:57:19;;;;;;;24.37;17.45;;;;;;;-0.59;86.35;101526.55;1796802;79;21049;-63
2021/01/03 07:00:08;;;;;;;30.35;19.25;;;;;;;-0.56;86.34;101533.02;1784062;80;21089;-63
2021/01/03 07:02:44;;;;;;;34.25;19.27;;;;;;;-0.52;86.33;101535.11;1780958;78;21123;-63
2021/01/03 07:05:13;;;;;;;28.35;16.20;;;;;;;-0.48;86.36;101535.47;1796559;78;21134;-63
2021/01/03 07:07:44;;;;;;;25.57;16.40;;;;;;;-0.47;86.36;101528.98;1795854;79;22032;-63
2021/01/03 07:10:22;;;;;;;25.30;14.15;;;;;;;-0.46;86.37;101529.40;1794124;79;21082;-63
2021/01/03 07:12:50;;;;;;;41.83;19.45;;;;;;;-0.44;86.36;101531.97;1766685;80;21077;-65
2021/01/03 07:15:33;;;;;;;49.40;25.32;;;;;;;-0.42;86.38;101531.49;1741777;81;21116;-64
2021/01/03 07:18:24;;;;;;;40.23;24.97;;;;;;;-0.41;86.40;101530.61;1750038;80;22351;-64
2021/01/03 07:21:06;;;;;;;34.53;22.30;;;;;;;-0.38;86.41;101529.28;1722526;80;22163;-64
2021/01/03 07:23:38;;;;;;;39.90;21.33;;;;;;;-0.37;86.40;101530.55;1785693;79;21177;-63
2021/01/03 07:26:24;;;;;;;31.80;17.50;;;;;;;-0.36;86.42;101529.67;1785532;79;21133;-65
2021/01/03 07:29:04;;;;;;;34.48;20.02;;;;;;;-0.33;86.43;101525.72;1753429;81;21193;-63
2021/01/03 07:32:05;;;;;;;40.55;22.48;;;;;;;-0.32;86.43;101526.13;1790318;78;21038;-64
2021/01/03 07:34:34;;;;;;;34.40;21.57;;;;;;;-0.28;86.42;101533.89;1748691;80;22113;-63
2021/01/03 07:37:19;;;;;;;42.55;24.82;;;;;;;-0.28;86.43;101529.55;1772005;79;21070;-64
2021/01/03 07:40:15;;;;;;;41.60;23.65;;;;;;;-0.26;86.45;101536.87;1788714;79;21138;-63
2021/01/03 07:42:54;;;;;;;48.15;26.70;;;;;;;-0.23;86.44;101536.80;1761707;80;21046;-64
2021/01/03 07:45:37;;;;;;;43.20;25.50;;;;;;;-0.19;86.44;101535.89;1782920;80;21031;-64
2021/01/03 07:48:34;;;;;;;31.62;16.87;;;;;;;-0.15;86.45;101534.95;1770802;79;21896;-63
2021/01/03 07:51:03;;;;;;;40.70;22.73;;;;;;;-0.14;86.40;101539.25;1773022;79;21490;-63
2021/01/03 07:53:34;;;;;;;41.90;23.75;;;;;;;-0.16;86.38;101537.13;1760856;80;21122;-64
2021/01/03 07:56:27;;;;;;;38.25;21.40;;;;;;;-0.18;86.35;101536.75;1733359;80;21073;-63
2021/01/03 07:58:57;;;;;;;30.60;18.12;;;;;;;-0.20;86.33;101539.34;1761137;80;21045;-64
2021/01/03 08:01:32;;;;;;;29.52;16.70;;;;;;;-0.20;86.29;101535.89;1771994;79;22820;-64
2021/01/03 08:04:17;;;;;;;37.95;20.02;;;;;;;-0.22;86.24;101535.92;1793642;79;21801;-64
2021/01/03 08:06:45;;;;;;;54.93;27.73;;;;;;;-0.24;86.19;101532.50;1771448;79;21564;-63
2021/01/03 08:09:27;;;;;;;57.30;28.05;;;;;;;-0.24;86.18;101531.20;1803342;78;21567;-65
2021/01/03 08:12:17;;;;;;;44.23;23.20;;;;;;;-0.23;86.15;101538.11;1804247;78;21496;-64
2021/01/03 08:14:45;;;;;;;38.00;21.65;;;;;;;-0.19;86.10;101538.91;1784987;80;21896;-65
2021/01/03 08:17:25;;;;;;;51.53;24.67;;;;;;;-0.20;86.06;101540.64;1821182;78;21075;-65
2021/01/03 08:19:53;;;;;;;51.45;27.35;;;;;;;-0.19;86.01;101541.09;1813826;78;21096;-64
2021/01/03 08:22:26;;;;;;;52.38;25.95;;;;;;;-0.19;85.95;101541.09;1796062;78;21078;-65
2021/01/03 08:24:56;;;;;;;58.87;26.12;;;;;;;-0.19;85.90;101535.00;1779953;79;21048;-64
2021/01/03 08:27:43;;;;;;;56.35;25.95;;;;;;;-0.19;85.85;101534.59;1796298;79;22755;-64
2021/01/03 08:30:20;;;;;;;56.85;26.17;;;;;;;-0.23;85.74;101527.72;1784235;80;21156;-64
2021/01/03 08:32:48;;;;;;;86.60;40.25;;;;;;;-0.23;85.71;101531.61;1796154;79;21093;-64
2021/01/03 08:35:27;;;;;;;52.65;24.98;;;;;;;-0.19;85.72;101536.30;1779685;80;21070;-64
2021/01/03 08:37:55;;;;;;;48.55;24.60;;;;;;;-0.15;85.70;101537.98;1796197;78;21610;-64
2021/01/03 08:40:32;;;;;;;49.45;25.50;;;;;;;-0.12;85.62;101533.59;1782983;80;21966;-64
2021/01/03 08:43:11;;;;;;;36.98;19.75;;;;;;;-0.13;85.57;101532.32;1780967;79;21091;-65
2021/01/03 08:45:41;;;;;;;47.55;24.10;;;;;;;-0.10;85.53;101532.26;1778863;79;21155;-64
2021/01/03 08:48:12;;;;;;;32.23;18.05;;;;;;;-0.10;85.44;101532.26;1795032;78;21116;-64
2021/01/03 08:50:41;;;;;;;35.40;20.20;;;;;;;-0.14;85.32;101531.47;1778711;80;21113;-64
2021/01/03 08:53:22;;;;;;;28.73;17.95;;;;;;;-0.20;85.25;101526.36;1783654;78;22071;-63
2021/01/03 08:55:51;;;;;;;33.23;19.42;;;;;;;-0.24;85.16;101519.52;1816513;78;21270;-63
2021/01/03 08:58:20;;;;;;;29.18;18.73;;;;;;;-0.26;85.15;101523.89;1815468;78;21156;-66
2021/01/03 09:00:49;;;;;;;36.20;20.45;;;;;;;-0.22;85.15;101521.64;1778600;80;21136;-63
2021/01/03 09:03:20;;;;;;;37.50;22.10;;;;;;;-0.18;85.18;101515.53;1811064;78;21123;-63
2021/01/03 09:05:50;;;;;;;36.33;20.50;;;;;;;-0.14;85.14;101521.52;1798754;78;22096;-66
2021/01/03 09:08:34;;;;;;;23.15;15.80;;;;;;;-0.13;85.12;101516.30;1768855;80;21121;-65
2021/01/03 09:11:30;;;;;;;31.23;17.42;;;;;;;-0.06;85.16;101510.12;1736004;82;21156;-68
2021/01/03 09:14:27;;;;;;;42.88;25.30;;;;;;;-0.02;85.12;101515.66;1720317;82;21168;-66
2021/01/03 09:17:16;;;;;;;26.20;16.35;;;;;;;0.05;85.10;101511.23;1716841;83;21168;-64
2021/01/03 09:20:08;;;;;;;28.65;16.10;;;;;;;0.08;85.02;101499.47;1744176;81;22153;-64
2021/01/03 09:22:39;;;;;;;21.80;16.30;;;;;;;0.09;84.95;101496.43;1766211;81;22281;-65
2021/01/03 09:25:24;;;;;;;29.50;18.65;;;;;;;0.09;84.85;101501.63;1766220;81;21161;-64
2021/01/03 09:27:57;;;;;;;27.48;18.23;;;;;;;0.10;84.81;101499.03;1765958;81;21026;-64
2021/01/03 09:30:36;;;;;;;24.95;18.30;;;;;;;0.15;84.75;101498.93;1766344;81;21145;-65
2021/01/03 09:33:13;;;;;;;21.35;15.70;;;;;;;0.18;84.73;101504.91;1766296;81;22162;-64
2021/01/03 09:36:38;;;;;;;23.67;16.27;;;;;;;0.21;84.65;101503.58;1766368;81;21510;-64
2021/01/03 09:39:33;;;;;;;30.23;19.10;;;;;;;0.21;84.52;101502.28;1766249;81;21149;-65
2021/01/03 09:42:33;;;;;;;23.98;17.80;;;;;;;0.21;84.39;101498.83;1735923;82;21117;-65
2021/01/03 09:45:20;;;;;;;23.45;18.65;;;;;;;0.23;84.35;101495.75;1750650;81;21118;-66
2021/01/03 09:47:48;;;;;;;26.55;20.72;;;;;;;0.28;84.29;101490.86;1749282;81;21996;-64
2021/01/03 09:50:45;;;;;;;25.48;17.75;;;;;;;0.34;84.25;101487.30;1765969;81;21586;-66
2021/01/03 09:53:24;;;;;;;27.05;20.15;;;;;;;0.41;84.23;101487.61;1763398;81;21644;-68
2021/01/03 09:56:35;;;;;;;39.55;27.98;;;;;;;0.47;84.15;101489.20;1755824;81;21133;-67
2021/01/03 09:59:20;;;;;;;42.27;25.90;;;;;;;0.48;84.08;101475.32;1766389;81;21069;-68
2021/01/03 10:01:49;;;;;;;35.65;23.50;;;;;;;0.54;84.04;101478.66;1766395;81;22053;-68
2021/01/03 10:04:28;;;;;;;31.60;22.85;;;;;;;0.59;83.98;101485.53;1766092;81;21161;-68
2021/01/03 10:07:09;;;;;;;37.93;27.17;;;;;;;0.60;83.90;101476.39;1740061;80;21171;-68
2021/01/03 10:09:37;;;;;;;36.95;25.65;;;;;;;0.61;83.77;101475.50;1768035;80;22252;-67
2021/01/03 10:12:23;;;;;;;35.45;24.45;;;;;;;0.60;83.65;101479.44;1778835;80;21156;-69
2021/01/03 10:15:23;;;;;;;41.70;29.05;;;;;;;0.62;83.61;101470.71;1778632;80;22055;-69
2021/01/03 10:18:01;;;;;;;33.58;23.98;;;;;;;0.64;83.52;101474.13;1760384;80;21105;-71
2021/01/03 10:20:42;;;;;;;34.00;24.05;;;;;;;0.69;83.46;101477.50;1775832;80;21616;-66
2021/01/03 10:23:40;;;;;;;38.30;28.23;;;;;;;0.73;83.42;101473.08;1778626;80;21631;-63
2021/01/03 10:26:31;;;;;;;37.55;26.52;;;;;;;0.76;83.41;101473.86;1771950;80;21162;-70
2021/01/03 10:28:59;;;;;;;32.65;23.05;;;;;;;0.85;83.40;101471.52;1778788;80;22865;-68
2021/01/03 10:31:47;;;;;;;37.83;26.57;;;;;;;0.91;83.32;101469.23;1778755;80;21439;-68
2021/01/03 10:34:17;;;;;;;34.23;25.55;;;;;;;0.93;83.20;101464.84;1776430;80;21153;-69
2021/01/03 10:36:45;;;;;;;37.90;24.23;;;;;;;0.93;83.09;101467.00;1762493;80;21194;-67
2021/01/03 10:39:15;;;;;;;47.85;28.57;;;;;;;0.92;82.98;101472.24;1781153;80;21168;-68
2021/01/03 10:41:46;;;;;;;46.30;27.15;;;;;;;0.90;82.90;101469.68;1780813;80;23465;-70
2021/01/03 10:44:15;;;;;;;49.88;29.95;;;;;;;0.86;82.76;101462.37;1779893;80;21200;-68
2021/01/03 10:46:46;;;;;;;42.70;27.90;;;;;;;0.86;82.76;101471.47;1780958;80;21188;-68
2021/01/03 10:49:15;;;;;;;29.40;20.80;;;;;;;0.86;82.69;101475.38;1754655;80;21090;-68
2021/01/03 10:51:45;;;;;;;27.90;20.55;;;;;;;0.83;82.63;101465.05;1778828;80;21104;-66
2021/01/03 10:54:17;;;;;;;34.43;23.80;;;;;;;0.81;82.60;101459.48;1779161;80;22047;-68
2021/01/03 10:56:48;;;;;;;25.77;18.50;;;;;;;0.81;82.56;101456.87;1777538;80;21187;-67
2021/01/03 10:59:17;;;;;;;32.08;23.02;;;;;;;0.79;82.53;101451.71;1779341;80;21025;-68
2021/01/03 11:01:45;;;;;;;34.23;23.07;;;;;;;0.77;82.48;101455.21;1778901;80;21156;-66
2021/01/03 11:04:15;;;;;;;31.77;22.70;;;;;;;0.74;82.49;101452.24;1778644;80;21144;-67
2021/01/03 11:06:46;;;;;;;23.87;17.77;;;;;;;0.74;82.47;101448.34;1778942;80;22048;-69
2021/01/03 11:09:17;;;;;;;25.85;20.48;;;;;;;0.73;82.40;101454.88;1767997;80;21192;-67
2021/01/03 11:11:46;;;;;;;26.30;19.12;;;;;;;0.70;82.38;101451.05;1766385;81;21154;-69
2021/01/03 11:14:14;;;;;;;26.27;20.52;;;;;;;0.70;82.37;101454.52;1765910;81;21173;-68
2021/01/03 11:16:43;;;;;;;23.35;18.48;;;;;;;0.70;82.38;101458.86;1766368;80;21153;-68
2021/01/03 11:19:14;;;;;;;26.23;19.35;;;;;;;0.69;82.35;101452.80;1746422;81;22066;-67
2021/01/03 11:21:43;;;;;;;25.05;17.67;;;;;;;0.67;82.32;101449.36;1763821;81;21180;-67
2021/01/03 11:24:13;;;;;;;24.27;17.80;;;;;;;0.66;82.29;101453.29;1766006;81;21153;-68
2021/01/03 11:26:42;;;;;;;24.63;17.45;;;;;;;0.64;82.30;101446.83;1766220;81;21188;-66
2021/01/03 11:29:17;;;;;;;22.37;18.07;;;;;;;0.64;82.31;101445.53;1765950;81;21144;-66
2021/01/03 11:31:48;;;;;;;23.95;17.60;;;;;;;0.66;82.31;101438.98;1766344;81;22052;-68
2021/01/03 11:34:38;;;;;;;22.73;17.15;;;;;;;0.68;82.26;101437.23;1765404;80;21600;-66
2021/01/03 11:37:13;;;;;;;23.42;18.50;;;;;;;0.70;82.26;101432.85;1736798;81;21467;-68
2021/01/03 11:39:41;;;;;;;26.70;19.25;;;;;;;0.74;82.28;101426.23;1746350;81;22048;-67
2021/01/03 11:42:12;;;;;;;22.50;16.10;;;;;;;0.79;82.29;101430.05;1753002;81;21181;-65
2021/01/03 11:44:43;;;;;;;23.07;18.02;;;;;;;0.86;82.29;101429.00;1752848;81;21894;-67
2021/01/03 11:47:13;;;;;;;25.70;20.75;;;;;;;0.91;82.24;101428.47;1752797;81;21173;-65
2021/01/03 11:49:41;;;;;;;26.02;19.73;;;;;;;0.96;82.21;101436.16;1752844;81;21173;-65
2021/01/03 11:52:10;;;;;;;23.45;15.50;;;;;;;1.00;82.16;101430.86;1750129;81;21162;-64